createdAt,value
2018-11-05T00:00:42.403Z,47.70
2018-11-05T00:05:46.442Z,47.91
2018-11-05T00:10:50.432Z,47.68
2018-11-05T00:15:53.864Z,47.51
2018-11-05T00:20:57.382Z,48.07
2018-11-05T00:26:01.307Z,47.98
2018-11-05T00:31:05.039Z,47.95
2018-11-05T00:36:08.380Z,47.71
2018-11-05T00:41:11.651Z,47.72
2018-11-05T00:46:15.608Z,47.72
2018-11-05T00:51:20.462Z,47.46
2018-11-05T00:56:24.960Z,48.07
2018-11-05T01:01:29.655Z,47.62
2018-11-05T01:06:33.181Z,47.76
2018-11-05T01:11:37.261Z,47.99
2018-11-05T01:16:41.072Z,47.70
2018-11-05T01:21:44.588Z,47.83
2018-11-05T01:26:48.261Z,47.67
2018-11-05T01:31:52.739Z,47.76
2018-11-05T01:36:56.148Z,47.57
2018-11-05T01:42:00.108Z,47.73
2018-11-05T01:47:03.521Z,47.74
2018-11-05T01:52:07.595Z,47.51
2018-11-05T01:57:10.890Z,48.00
2018-11-05T02:02:14.839Z,47.57
2018-11-05T02:07:18.165Z,47.87
2018-11-05T02:12:21.682Z,47.93
2018-11-05T02:17:25.069Z,47.45
2018-11-05T02:22:28.694Z,47.60
2018-11-05T02:27:32.133Z,47.66
2018-11-05T02:32:35.436Z,47.91
2018-11-05T02:37:38.860Z,47.46
2018-11-05T02:42:42.785Z,47.49
2018-11-05T02:47:46.066Z,47.51
2018-11-05T02:52:49.364Z,47.38
2018-11-05T02:57:52.636Z,47.45
2018-11-05T03:02:55.950Z,47.45
2018-11-05T03:07:59.209Z,47.75
2018-11-05T03:13:02.503Z,47.31
2018-11-05T03:18:05.783Z,47.63
2018-11-05T03:23:09.061Z,47.53
2018-11-05T03:28:12.338Z,47.49
2018-11-05T03:33:15.613Z,47.55
2018-11-05T03:38:18.894Z,47.29
2018-11-05T03:43:22.169Z,47.59
2018-11-05T03:48:25.440Z,47.24
2018-11-05T03:53:28.722Z,47.65
2018-11-05T03:58:32.005Z,47.22
2018-11-05T04:03:35.363Z,47.47
2018-11-05T04:08:38.585Z,47.21
2018-11-05T04:13:41.849Z,47.47
2018-11-05T04:18:45.122Z,47.39
2018-11-05T04:23:48.405Z,47.43
2018-11-05T04:28:51.670Z,47.27
2018-11-05T04:33:54.970Z,47.21
2018-11-05T04:38:58.253Z,47.17
2018-11-05T04:44:01.518Z,47.13
2018-11-05T04:49:04.944Z,47.27
2018-11-05T04:54:08.258Z,47.15
2018-11-05T04:59:11.633Z,46.99
2018-11-05T05:04:14.908Z,47.15
2018-11-05T05:09:18.225Z,47.48
2018-11-05T05:14:21.531Z,47.36
2018-11-05T05:19:24.829Z,47.68
2018-11-05T05:24:28.121Z,47.83
2018-11-05T05:29:31.506Z,48.27
2018-11-05T05:34:34.853Z,47.91
2018-11-05T05:39:38.158Z,47.95
2018-11-05T05:44:41.456Z,47.90
2018-11-05T05:49:44.746Z,48.18
2018-11-05T05:54:48.042Z,48.16
2018-11-05T05:59:51.382Z,48.20
2018-11-05T06:04:54.685Z,48.48
2018-11-05T06:09:57.977Z,48.20
2018-11-05T06:15:01.270Z,48.39
2018-11-05T06:20:06.178Z,48.58
2018-11-05T06:25:09.497Z,48.38
2018-11-05T06:30:15.485Z,48.81
2018-11-05T06:35:19.160Z,48.70
2018-11-05T06:40:22.438Z,48.31
2018-11-05T06:45:25.799Z,48.36
2018-11-05T06:50:29.052Z,48.99
2018-11-05T06:55:32.345Z,48.69
2018-11-05T07:00:35.638Z,48.81
2018-11-05T07:05:39.023Z,48.43
2018-11-05T07:10:42.269Z,48.52
2018-11-05T07:15:45.572Z,48.77
2018-11-05T07:20:48.957Z,48.40
2018-11-05T07:25:52.264Z,48.72
2018-11-05T07:30:55.566Z,48.47
2018-11-05T07:35:58.853Z,48.12
2018-11-05T07:41:02.153Z,45.65
2018-11-05T07:46:05.905Z,44.76
2018-11-05T07:51:09.211Z,44.46
2018-11-05T07:56:12.612Z,44.25
2018-11-05T08:01:15.906Z,44.79
2018-11-05T08:06:19.205Z,45.17
2018-11-05T08:11:22.505Z,45.63
2018-11-05T08:16:25.853Z,45.01
2018-11-05T08:21:29.125Z,44.83
2018-11-05T08:26:32.414Z,44.37
2018-11-05T08:31:35.693Z,43.69
2018-11-05T08:36:38.977Z,43.72
2018-11-05T08:41:42.251Z,44.16
2018-11-05T08:46:45.559Z,44.02
2018-11-05T08:51:49.099Z,43.72
2018-11-05T08:56:52.178Z,43.60
2018-11-05T09:01:55.460Z,43.95
2018-11-05T09:06:58.750Z,43.42
2018-11-05T09:12:02.091Z,43.60
2018-11-05T09:17:05.930Z,43.54
2018-11-05T09:22:09.213Z,44.05
2018-11-05T09:27:12.521Z,44.84
2018-11-05T09:32:15.891Z,44.32
2018-11-05T09:37:19.174Z,44.71
2018-11-05T09:42:22.461Z,45.19
2018-11-05T09:47:25.751Z,44.59
2018-11-05T09:52:29.080Z,44.90
2018-11-05T09:57:32.387Z,44.82
2018-11-05T10:02:41.259Z,45.42
2018-11-05T10:07:45.029Z,45.00
2018-11-05T10:12:48.341Z,44.72
2018-11-05T10:17:51.641Z,43.73
2018-11-05T10:22:54.942Z,43.79
2018-11-05T10:28:02.175Z,43.58
2018-11-05T10:33:05.581Z,43.33
2018-11-05T10:38:08.844Z,43.39
2018-11-05T10:43:12.156Z,43.40
2018-11-05T10:48:15.457Z,43.27
2018-11-05T10:53:18.766Z,43.48
2018-11-05T10:58:22.151Z,43.80
2018-11-05T11:03:29.575Z,43.36
2018-11-05T11:08:32.893Z,43.74
2018-11-05T11:13:36.189Z,43.91
2018-11-05T11:18:39.501Z,43.73
2018-11-05T11:23:42.810Z,44.03
2018-11-05T11:28:46.301Z,44.33
2018-11-05T11:33:49.433Z,44.09
2018-11-05T11:38:52.742Z,44.30
2018-11-05T11:43:56.059Z,44.21
2018-11-05T11:48:59.373Z,44.34
2018-11-05T11:54:02.863Z,44.50
2018-11-05T11:59:06.177Z,44.39
2018-11-05T12:04:09.509Z,44.01
2018-11-05T12:09:12.809Z,44.52
2018-11-05T12:14:16.175Z,44.45
2018-11-05T12:19:19.468Z,44.34
2018-11-05T12:24:22.824Z,44.38
2018-11-05T12:29:26.105Z,44.48
2018-11-05T12:34:29.409Z,44.36
2018-11-05T12:39:32.727Z,44.09
2018-11-05T12:44:36.108Z,44.27
2018-11-05T12:49:39.338Z,44.33
2018-11-05T12:54:42.622Z,44.35
2018-11-05T12:59:45.909Z,44.49
2018-11-05T13:04:49.181Z,44.57
2018-11-05T13:09:52.457Z,44.24
2018-11-05T13:14:55.739Z,44.30
2018-11-05T13:19:59.030Z,43.89
2018-11-05T13:25:02.552Z,44.16
2018-11-05T13:30:07.366Z,44.70
2018-11-05T13:35:12.324Z,44.76
2018-11-05T13:40:17.881Z,45.08
2018-11-05T13:45:21.602Z,45.33
2018-11-05T13:50:25.244Z,45.27
2018-11-05T13:55:28.950Z,45.34
2018-11-05T14:00:32.230Z,45.12
2018-11-05T14:05:35.559Z,45.30
2018-11-05T14:10:38.820Z,45.34
2018-11-05T14:15:42.102Z,45.38
2018-11-05T14:20:45.378Z,44.92
2018-11-05T14:25:48.854Z,44.51
2018-11-05T14:30:52.002Z,44.76
2018-11-05T14:35:55.315Z,44.37
2018-11-05T14:40:58.593Z,44.65
2018-11-05T14:46:01.920Z,44.54
2018-11-05T14:51:05.451Z,44.64
2018-11-05T14:56:08.742Z,44.50
2018-11-05T15:01:12.025Z,44.57
2018-11-05T15:06:15.302Z,44.55
2018-11-05T15:11:18.578Z,44.50
2018-11-05T15:16:21.859Z,44.70
2018-11-05T15:21:25.218Z,44.70
2018-11-05T15:26:28.470Z,44.82
2018-11-05T15:31:31.769Z,44.26
2018-11-05T15:36:35.090Z,44.05
2018-11-05T15:41:38.380Z,43.99
2018-11-05T15:46:41.680Z,43.55
2018-11-05T15:51:45.253Z,44.10
2018-11-05T15:56:48.313Z,44.07
2018-11-05T16:01:51.598Z,44.36
2018-11-05T16:06:54.902Z,44.58
2018-11-05T16:11:58.547Z,44.31
2018-11-05T16:17:01.948Z,44.41
2018-11-05T16:22:05.426Z,44.81
2018-11-05T16:27:08.734Z,44.54
2018-11-05T16:32:12.136Z,44.94
2018-11-05T16:37:15.401Z,44.56
2018-11-05T16:42:18.681Z,44.96
2018-11-05T16:47:21.989Z,44.84
2018-11-05T16:52:25.267Z,45.40
2018-11-05T16:57:28.615Z,45.52
2018-11-05T17:02:32.009Z,44.88
2018-11-05T17:07:35.151Z,45.13
2018-11-05T17:12:38.425Z,44.60
2018-11-05T17:17:42.301Z,44.77
2018-11-05T17:22:45.923Z,45.05
2018-11-05T17:27:49.209Z,45.59
2018-11-05T17:32:52.685Z,45.81
2018-11-05T17:37:56.007Z,46.25
2018-11-05T17:42:59.306Z,46.41
2018-11-05T17:48:02.593Z,46.35
2018-11-05T17:53:06.082Z,46.22
2018-11-05T17:58:09.473Z,46.65
2018-11-05T18:03:12.785Z,46.62
2018-11-05T18:08:16.093Z,46.51
2018-11-05T18:13:19.389Z,46.41
2018-11-05T18:18:22.683Z,46.36
2018-11-05T18:23:26.006Z,46.09
2018-11-05T18:28:29.467Z,46.16
2018-11-05T18:33:32.780Z,46.08
2018-11-05T18:38:36.309Z,46.19
2018-11-05T18:43:39.917Z,45.92
2018-11-05T18:48:43.389Z,46.22
2018-11-05T18:53:46.717Z,46.06
2018-11-05T18:58:50.037Z,45.97
2018-11-05T19:03:53.399Z,46.38
2018-11-05T19:08:56.705Z,46.06
2018-11-05T19:14:00.028Z,46.50
2018-11-05T19:19:03.355Z,46.12
2018-11-05T19:24:06.756Z,46.28
2018-11-05T19:29:10.327Z,46.05
2018-11-05T19:34:13.623Z,46.01
2018-11-05T19:39:16.923Z,46.02
2018-11-05T19:44:20.289Z,45.68
2018-11-05T19:49:23.574Z,46.45
2018-11-05T19:54:26.846Z,45.94
2018-11-05T19:59:30.153Z,46.12
2018-11-05T20:04:33.664Z,45.92
2018-11-05T20:09:36.925Z,45.90
2018-11-05T20:14:40.278Z,45.65
2018-11-05T20:19:43.553Z,45.89
2018-11-05T20:24:46.826Z,45.63
2018-11-05T20:29:50.113Z,45.84
2018-11-05T20:34:53.396Z,45.83
2018-11-05T20:39:56.798Z,45.91
2018-11-05T20:44:59.998Z,45.64
2018-11-05T20:50:03.345Z,45.75
2018-11-05T20:55:07.225Z,45.91
2018-11-05T21:00:12.386Z,45.79
2018-11-05T21:05:15.746Z,46.03
2018-11-05T21:10:19.017Z,46.14
2018-11-05T21:15:23.033Z,46.20
2018-11-05T21:20:26.310Z,46.36
2018-11-05T21:25:29.594Z,46.15
2018-11-05T21:30:32.875Z,46.06
2018-11-05T21:35:36.141Z,46.16
2018-11-05T21:40:39.433Z,46.31
2018-11-05T21:45:42.779Z,46.36
2018-11-05T21:50:46.041Z,46.70
2018-11-05T21:55:49.332Z,46.65
2018-11-05T22:00:52.608Z,46.57
2018-11-05T22:05:55.876Z,46.94
2018-11-05T22:10:59.157Z,46.69
2018-11-05T22:16:02.424Z,46.68
2018-11-05T22:21:05.873Z,46.90
2018-11-05T22:26:09.140Z,47.04
2018-11-05T22:31:12.414Z,46.64
2018-11-05T22:36:15.684Z,46.70
2018-11-05T22:41:19.007Z,46.89
2018-11-05T22:46:22.265Z,46.68
2018-11-05T22:51:25.569Z,46.87
2018-11-05T22:56:28.880Z,46.95
2018-11-05T23:01:37.389Z,47.16
2018-11-05T23:06:40.665Z,47.14
2018-11-05T23:11:43.948Z,46.99
2018-11-05T23:16:47.223Z,46.91
2018-11-05T23:21:50.496Z,47.32
2018-11-05T23:26:53.773Z,47.12
2018-11-05T23:31:57.047Z,46.98
2018-11-05T23:37:00.325Z,46.96
2018-11-05T23:42:03.607Z,47.17
2018-11-05T23:47:06.893Z,47.21
2018-11-05T23:52:10.223Z,47.26
2018-11-05T23:57:13.469Z,47.47
